CFG3MC GCRR-EDDB
Flight info
| Callsign | CFG3MC |
|---|---|
| Flight time | 4h 10m |
| Altitude | 38000 |
| Route | KORAL UG5 SONSO DCT NIRAL UN871 ADUBI DCT VJF L27 MAR DCT ALCOL N871 TOPTU DCT TOU DCT GAI DCT MEN DCT NINUN DCT LATAM DCT ETREK DCT LTP DCT SOPLO DCT OMASI DCT KINNI DCT SOSAL DCT KORED DCT BERSU DCT DITON DCT LOKTA DCT TIKNI T279 TAMEB T278 KLF KLF1R |
| Aircraft | A20N/M-SDE2E3FGHIRWXY/LB1 |
Departure
| Time | 2026-05-06 13:23 |
|---|---|
| Airport | César Manrique-Lanzarote Airport (GCRR) |
Arrival
| Time | 2026-05-06 17:33 |
|---|---|
| Airport | Berlin Brandenburg Airport (EDDB) |
| Time | Latitude | Longitude | Altitude | Speed | Heading |
|---|---|---|---|---|---|
| 2026-05-06 13:06 | 28.94964 | -13.60779 | 33 ft | 0 kts | 297° |
| 2026-05-06 13:15 | 28.94961 | -13.60773 | 75 ft | 4 kts | 297° |
| 2026-05-06 13:15 | 28.94948 | -13.60745 | 41 ft | 4 kts | 297° |
| 2026-05-06 13:16 | 28.94938 | -13.60722 | 45 ft | 4 kts | 301° |
| 2026-05-06 13:16 | 28.94921 | -13.60702 | 47 ft | 4 kts | 348° |
| 2026-05-06 13:16 | 28.94896 | -13.60704 | 43 ft | 4 kts | 24° |
| 2026-05-06 13:16 | 28.94872 | -13.60719 | 46 ft | 4 kts | 29° |
| 2026-05-06 13:17 | 28.94866 | -13.60722 | 45 ft | 1 kts | 27° |
| 2026-05-06 13:19 | 28.94867 | -13.60721 | 45 ft | 2 kts | 27° |
| 2026-05-06 13:19 | 28.94900 | -13.60664 | 46 ft | 11 kts | 103° |
| 2026-05-06 13:20 | 28.94867 | -13.60585 | 48 ft | 11 kts | 127° |
| 2026-05-06 13:20 | 28.94804 | -13.60584 | 45 ft | 9 kts | 206° |
| 2026-05-06 13:20 | 28.94693 | -13.60648 | 43 ft | 28 kts | 206° |
| 2026-05-06 13:20 | 28.94521 | -13.60745 | 43 ft | 26 kts | 206° |
| 2026-05-06 13:21 | 28.94354 | -13.60839 | 40 ft | 30 kts | 206° |
| 2026-05-06 13:21 | 28.94128 | -13.60976 | 36 ft | 40 kts | 207° |
| 2026-05-06 13:21 | 28.93878 | -13.61118 | 34 ft | 40 kts | 206° |
| 2026-05-06 13:21 | 28.93657 | -13.61204 | 31 ft | 25 kts | 137° |
| 2026-05-06 13:22 | 28.93630 | -13.61053 | 32 ft | 12 kts | 30° |
| 2026-05-06 13:22 | 28.93642 | -13.61046 | 32 ft | 0 kts | 27° |
| 2026-05-06 13:22 | 28.93688 | -13.61019 | 33 ft | 32 kts | 27° |
| 2026-05-06 13:22 | 28.94085 | -13.60791 | 39 ft | 96 kts | 26° |
| 2026-05-06 13:23 | 28.94866 | -13.60330 | 60 ft | 152 kts | 28° |
| 2026-05-06 13:23 | 28.95796 | -13.59820 | 794 ft | 145 kts | 34° |
| 2026-05-06 13:23 | 28.96577 | -13.59184 | 1743 ft | 133 kts | 38° |
| 2026-05-06 13:23 | 28.97362 | -13.58479 | 2211 ft | 162 kts | 38° |
| 2026-05-06 13:24 | 28.98359 | -13.57599 | 2483 ft | 198 kts | 37° |
| 2026-05-06 13:24 | 28.99541 | -13.56582 | 2852 ft | 226 kts | 35° |
| 2026-05-06 13:24 | 29.00792 | -13.55374 | 3370 ft | 243 kts | 44° |
| 2026-05-06 13:24 | 29.01924 | -13.53905 | 4025 ft | 255 kts | 47° |
| 2026-05-06 13:25 | 29.03081 | -13.52286 | 4743 ft | 264 kts | 47° |
| 2026-05-06 13:25 | 29.04239 | -13.50647 | 5470 ft | 272 kts | 47° |
| 2026-05-06 13:25 | 29.05443 | -13.48947 | 6259 ft | 279 kts | 48° |
| 2026-05-06 13:25 | 29.06680 | -13.47206 | 6975 ft | 285 kts | 48° |
| 2026-05-06 13:26 | 29.07941 | -13.45431 | 7739 ft | 290 kts | 47° |
| 2026-05-06 13:26 | 29.09273 | -13.43683 | 8529 ft | 293 kts | 40° |
| 2026-05-06 13:26 | 29.10948 | -13.42368 | 9328 ft | 294 kts | 25° |
| 2026-05-06 13:26 | 29.12792 | -13.41324 | 10110 ft | 298 kts | 21° |
| 2026-05-06 13:27 | 29.14720 | -13.40306 | 10526 ft | 316 kts | 21° |
| 2026-05-06 13:27 | 29.16785 | -13.39220 | 10821 ft | 337 kts | 21° |
| 2026-05-06 13:27 | 29.18965 | -13.38062 | 11270 ft | 352 kts | 22° |
| 2026-05-06 13:27 | 29.21207 | -13.36861 | 11788 ft | 359 kts | 22° |
| 2026-05-06 13:28 | 29.23472 | -13.35642 | 12007 ft | 360 kts | 22° |
| 2026-05-06 13:28 | 29.25744 | -13.34405 | 12039 ft | 362 kts | 24° |
| 2026-05-06 13:28 | 29.27767 | -13.32680 | 12035 ft | 368 kts | 45° |
| 2026-05-06 13:28 | 29.29349 | -13.30365 | 12041 ft | 370 kts | 53° |
| 2026-05-06 13:29 | 29.30809 | -13.27942 | 12034 ft | 370 kts | 54° |
| 2026-05-06 13:29 | 29.32261 | -13.25503 | 12036 ft | 371 kts | 53° |
| 2026-05-06 13:29 | 29.33720 | -13.23066 | 12034 ft | 371 kts | 53° |
| 2026-05-06 13:29 | 29.35185 | -13.20638 | 12034 ft | 371 kts | 53° |
| 2026-05-06 13:30 | 29.36659 | -13.18206 | 12037 ft | 371 kts | 53° |
| 2026-05-06 13:30 | 29.38133 | -13.15778 | 12037 ft | 371 kts | 53° |
| 2026-05-06 13:30 | 29.39608 | -13.13349 | 12035 ft | 371 kts | 53° |
| 2026-05-06 13:30 | 29.41083 | -13.10923 | 12033 ft | 371 kts | 53° |
| 2026-05-06 13:31 | 29.42560 | -13.08492 | 12035 ft | 371 kts | 53° |
| 2026-05-06 13:31 | 29.44036 | -13.06063 | 12035 ft | 371 kts | 53° |
| 2026-05-06 13:31 | 29.45512 | -13.03631 | 12035 ft | 371 kts | 53° |
| 2026-05-06 13:31 | 29.46986 | -13.01202 | 12037 ft | 371 kts | 53° |
| 2026-05-06 13:32 | 29.48465 | -12.98762 | 12202 ft | 374 kts | 53° |
| 2026-05-06 13:32 | 29.49957 | -12.96301 | 12907 ft | 377 kts | 53° |
| 2026-05-06 13:32 | 29.51454 | -12.93829 | 13681 ft | 379 kts | 53° |
| 2026-05-06 13:32 | 29.52970 | -12.91324 | 14327 ft | 384 kts | 53° |
| 2026-05-06 13:33 | 29.54501 | -12.88794 | 14916 ft | 389 kts | 53° |
| 2026-05-06 13:33 | 29.56051 | -12.86230 | 15523 ft | 393 kts | 53° |
| 2026-05-06 13:33 | 29.57598 | -12.83669 | 16118 ft | 398 kts | 53° |
| 2026-05-06 13:33 | 29.59205 | -12.81008 | 16735 ft | 402 kts | 53° |
| 2026-05-06 13:34 | 29.60784 | -12.78391 | 17320 ft | 406 kts | 53° |
| 2026-05-06 13:34 | 29.62425 | -12.75669 | 17916 ft | 411 kts | 53° |
| 2026-05-06 13:34 | 29.64060 | -12.72956 | 18477 ft | 415 kts | 53° |
| 2026-05-06 13:34 | 29.65710 | -12.70216 | 18987 ft | 419 kts | 53° |
| 2026-05-06 13:35 | 29.67373 | -12.67451 | 19513 ft | 422 kts | 53° |
| 2026-05-06 13:35 | 29.69028 | -12.64699 | 20031 ft | 425 kts | 53° |
| 2026-05-06 13:35 | 29.70741 | -12.61848 | 20548 ft | 429 kts | 53° |
| 2026-05-06 13:35 | 29.72420 | -12.59052 | 21040 ft | 432 kts | 53° |
| 2026-05-06 13:36 | 29.74131 | -12.56191 | 21522 ft | 436 kts | 54° |
| 2026-05-06 13:36 | 29.75849 | -12.53298 | 22001 ft | 439 kts | 54° |
| 2026-05-06 13:36 | 29.77575 | -12.50382 | 22499 ft | 443 kts | 54° |
| 2026-05-06 13:36 | 29.79313 | -12.47441 | 22956 ft | 446 kts | 54° |
| 2026-05-06 13:37 | 29.81066 | -12.44471 | 23427 ft | 449 kts | 54° |
| 2026-05-06 13:37 | 29.82829 | -12.41484 | 23829 ft | 453 kts | 54° |
| 2026-05-06 13:37 | 29.84610 | -12.38464 | 24159 ft | 458 kts | 54° |
| 2026-05-06 13:37 | 29.86410 | -12.35412 | 24493 ft | 463 kts | 54° |
| 2026-05-06 13:38 | 29.88227 | -12.32329 | 24818 ft | 467 kts | 54° |
| 2026-05-06 13:38 | 29.90057 | -12.29222 | 25138 ft | 471 kts | 54° |
| 2026-05-06 13:38 | 29.91909 | -12.26076 | 25464 ft | 476 kts | 54° |
| 2026-05-06 13:38 | 29.93770 | -12.22911 | 25776 ft | 480 kts | 55° |
| 2026-05-06 13:39 | 29.95648 | -12.19714 | 26078 ft | 484 kts | 55° |
| 2026-05-06 13:39 | 29.97544 | -12.16485 | 26389 ft | 487 kts | 55° |
| 2026-05-06 13:39 | 29.99449 | -12.13240 | 26692 ft | 491 kts | 54° |
| 2026-05-06 13:39 | 30.01559 | -12.10128 | 26966 ft | 494 kts | 46° |
| 2026-05-06 13:40 | 30.03919 | -12.07235 | 27256 ft | 496 kts | 44° |
| 2026-05-06 13:40 | 30.06324 | -12.04435 | 27539 ft | 499 kts | 42° |
| 2026-05-06 13:40 | 30.08845 | -12.01589 | 27820 ft | 502 kts | 41° |
| 2026-05-06 13:40 | 30.11334 | -11.98820 | 28082 ft | 505 kts | 41° |
| 2026-05-06 13:41 | 30.13877 | -11.96002 | 28363 ft | 508 kts | 41° |
| 2026-05-06 13:41 | 30.16436 | -11.93161 | 28647 ft | 511 kts | 41° |
| 2026-05-06 13:41 | 30.19003 | -11.90301 | 28920 ft | 514 kts | 41° |
| 2026-05-06 13:41 | 30.21580 | -11.87420 | 29201 ft | 517 kts | 41° |
| 2026-05-06 13:42 | 30.24169 | -11.84517 | 29478 ft | 520 kts | 42° |
| 2026-05-06 13:42 | 30.26771 | -11.81592 | 29773 ft | 522 kts | 42° |
| 2026-05-06 13:42 | 30.29370 | -11.78667 | 30139 ft | 522 kts | 42° |
| 2026-05-06 13:42 | 30.31971 | -11.75736 | 30440 ft | 522 kts | 42° |
| 2026-05-06 13:43 | 30.34576 | -11.72798 | 30727 ft | 523 kts | 42° |
| 2026-05-06 13:43 | 30.37183 | -11.69857 | 31007 ft | 524 kts | 42° |
| 2026-05-06 13:43 | 30.39791 | -11.66913 | 31289 ft | 524 kts | 42° |
| 2026-05-06 13:43 | 30.42407 | -11.63957 | 31555 ft | 525 kts | 42° |
| 2026-05-06 13:44 | 30.45026 | -11.60997 | 31811 ft | 526 kts | 42° |
| 2026-05-06 13:44 | 30.47643 | -11.58036 | 32072 ft | 527 kts | 42° |
| 2026-05-06 13:44 | 30.49380 | -11.56070 | 32251 ft | 527 kts | 42° |
| 2026-05-06 13:44 | 30.52001 | -11.53101 | 32516 ft | 527 kts | 42° |
| 2026-05-06 13:45 | 30.54627 | -11.50124 | 32778 ft | 528 kts | 42° |
| 2026-05-06 13:45 | 30.59877 | -11.44165 | 33266 ft | 529 kts | 42° |
| 2026-05-06 13:45 | 30.62507 | -11.41176 | 33513 ft | 529 kts | 42° |
| 2026-05-06 13:46 | 30.65998 | -11.37205 | 33811 ft | 530 kts | 42° |
| 2026-05-06 13:46 | 30.67775 | -11.35181 | 33967 ft | 531 kts | 42° |
| 2026-05-06 13:46 | 30.70412 | -11.32178 | 34165 ft | 531 kts | 42° |
| 2026-05-06 13:46 | 30.73047 | -11.29173 | 34398 ft | 530 kts | 42° |
| 2026-05-06 13:47 | 30.75675 | -11.26174 | 34660 ft | 529 kts | 42° |
| 2026-05-06 13:47 | 30.78296 | -11.23180 | 34909 ft | 527 kts | 42° |
| 2026-05-06 13:47 | 30.80911 | -11.20191 | 35129 ft | 527 kts | 42° |
| 2026-05-06 13:47 | 30.83520 | -11.17207 | 35364 ft | 525 kts | 42° |
| 2026-05-06 13:48 | 30.86123 | -11.14227 | 35594 ft | 524 kts | 42° |
| 2026-05-06 13:48 | 30.88719 | -11.11253 | 35812 ft | 523 kts | 42° |
| 2026-05-06 13:48 | 30.91313 | -11.08279 | 36014 ft | 523 kts | 42° |
| 2026-05-06 13:48 | 30.93900 | -11.05311 | 36213 ft | 522 kts | 42° |
| 2026-05-06 13:49 | 30.96483 | -11.02344 | 36406 ft | 521 kts | 42° |
| 2026-05-06 13:49 | 30.99064 | -10.99378 | 36590 ft | 521 kts | 42° |
| 2026-05-06 13:49 | 31.01636 | -10.96419 | 36773 ft | 520 kts | 42° |
| 2026-05-06 13:49 | 31.04209 | -10.93457 | 36952 ft | 519 kts | 42° |
| 2026-05-06 13:50 | 31.06781 | -10.90494 | 37127 ft | 519 kts | 42° |
| 2026-05-06 13:50 | 31.09343 | -10.87541 | 37285 ft | 519 kts | 42° |
| 2026-05-06 13:50 | 31.11909 | -10.84579 | 37437 ft | 518 kts | 42° |
| 2026-05-06 13:50 | 31.14472 | -10.81619 | 37577 ft | 518 kts | 42° |
| 2026-05-06 13:51 | 31.17032 | -10.78661 | 37724 ft | 518 kts | 42° |
| 2026-05-06 13:51 | 31.19593 | -10.75698 | 37868 ft | 518 kts | 42° |
| 2026-05-06 13:51 | 31.22148 | -10.72740 | 37986 ft | 518 kts | 42° |
| 2026-05-06 13:51 | 31.24710 | -10.69773 | 37999 ft | 518 kts | 42° |
| 2026-05-06 13:52 | 31.29811 | -10.63854 | 38001 ft | 516 kts | 42° |
| 2026-05-06 13:52 | 31.34867 | -10.57980 | 38001 ft | 515 kts | 42° |
| 2026-05-06 13:53 | 31.39944 | -10.52071 | 38001 ft | 514 kts | 42° |
| 2026-05-06 13:53 | 31.45010 | -10.46167 | 38000 ft | 514 kts | 43° |
| 2026-05-06 13:54 | 31.50069 | -10.40260 | 38002 ft | 513 kts | 43° |
| 2026-05-06 13:54 | 31.55122 | -10.34351 | 38002 ft | 513 kts | 43° |
| 2026-05-06 13:55 | 31.60172 | -10.28436 | 38001 ft | 513 kts | 43° |
| 2026-05-06 13:55 | 31.65217 | -10.22518 | 37999 ft | 513 kts | 43° |
| 2026-05-06 13:56 | 31.70250 | -10.16602 | 37996 ft | 512 kts | 43° |
| 2026-05-06 13:56 | 31.75280 | -10.10682 | 38000 ft | 512 kts | 43° |
| 2026-05-06 13:57 | 31.80306 | -10.04756 | 38000 ft | 511 kts | 43° |
| 2026-05-06 13:57 | 31.85325 | -9.98829 | 37995 ft | 511 kts | 43° |
| 2026-05-06 13:58 | 31.90336 | -9.92903 | 37995 ft | 511 kts | 43° |
| 2026-05-06 13:58 | 31.95341 | -9.86973 | 37999 ft | 511 kts | 43° |
| 2026-05-06 13:59 | 32.00347 | -9.81033 | 37999 ft | 510 kts | 43° |
| 2026-05-06 13:59 | 32.05344 | -9.75093 | 37995 ft | 510 kts | 43° |
| 2026-05-06 14:00 | 32.10337 | -9.69149 | 37990 ft | 510 kts | 43° |
| 2026-05-06 14:00 | 32.15329 | -9.63195 | 37992 ft | 510 kts | 43° |
| 2026-05-06 14:01 | 32.20314 | -9.57240 | 37987 ft | 510 kts | 43° |
| 2026-05-06 14:01 | 32.25297 | -9.51278 | 37994 ft | 510 kts | 43° |
| 2026-05-06 14:02 | 32.30246 | -9.45346 | 37986 ft | 510 kts | 43° |
| 2026-05-06 14:02 | 32.35226 | -9.39368 | 37988 ft | 510 kts | 43° |
| 2026-05-06 14:03 | 32.40201 | -9.33386 | 37988 ft | 510 kts | 43° |
| 2026-05-06 14:03 | 32.45176 | -9.27393 | 37984 ft | 510 kts | 43° |
| 2026-05-06 14:04 | 32.50149 | -9.21392 | 37982 ft | 510 kts | 43° |
| 2026-05-06 14:04 | 32.55118 | -9.15387 | 37985 ft | 510 kts | 43° |
| 2026-05-06 14:05 | 32.60078 | -9.09382 | 37985 ft | 510 kts | 43° |
| 2026-05-06 14:05 | 32.65033 | -9.03373 | 37987 ft | 509 kts | 43° |
| 2026-05-06 14:06 | 32.69985 | -8.97358 | 37988 ft | 509 kts | 43° |
| 2026-05-06 14:06 | 32.74931 | -8.91340 | 37985 ft | 509 kts | 43° |
| 2026-05-06 14:07 | 32.79870 | -8.85320 | 37988 ft | 509 kts | 43° |
| 2026-05-06 14:07 | 32.84807 | -8.79293 | 37989 ft | 509 kts | 43° |
| 2026-05-06 14:08 | 32.89741 | -8.73259 | 37987 ft | 508 kts | 43° |
| 2026-05-06 14:08 | 32.94672 | -8.67219 | 37986 ft | 508 kts | 43° |
| 2026-05-06 14:09 | 32.99594 | -8.61178 | 37985 ft | 508 kts | 43° |
| 2026-05-06 14:09 | 33.04513 | -8.55132 | 37983 ft | 508 kts | 43° |
| 2026-05-06 14:10 | 33.09394 | -8.49122 | 37982 ft | 508 kts | 43° |
| 2026-05-06 14:10 | 33.14301 | -8.43070 | 37982 ft | 508 kts | 43° |
| 2026-05-06 14:11 | 33.19327 | -8.37166 | 37981 ft | 504 kts | 34° |
| 2026-05-06 14:11 | 33.25052 | -8.32430 | 37987 ft | 500 kts | 28° |
| 2026-05-06 14:12 | 33.30922 | -8.27978 | 37982 ft | 500 kts | 27° |
| 2026-05-06 14:12 | 33.36826 | -8.23577 | 37984 ft | 499 kts | 27° |
| 2026-05-06 14:13 | 33.42712 | -8.19162 | 37982 ft | 499 kts | 27° |
| 2026-05-06 14:13 | 33.48586 | -8.14726 | 37982 ft | 499 kts | 28° |
| 2026-05-06 14:14 | 33.54452 | -8.10280 | 37986 ft | 499 kts | 28° |
| 2026-05-06 14:14 | 33.60312 | -8.05832 | 37985 ft | 499 kts | 28° |
| 2026-05-06 14:15 | 33.66168 | -8.01379 | 37988 ft | 498 kts | 28° |
| 2026-05-06 14:15 | 33.72029 | -7.96917 | 37988 ft | 498 kts | 28° |
| 2026-05-06 14:16 | 33.77839 | -7.92486 | 37981 ft | 498 kts | 28° |
| 2026-05-06 14:16 | 33.83684 | -7.88021 | 37980 ft | 498 kts | 28° |
| 2026-05-06 14:17 | 33.89562 | -7.83523 | 37980 ft | 497 kts | 28° |
| 2026-05-06 14:17 | 33.95357 | -7.79083 | 37981 ft | 497 kts | 28° |
| 2026-05-06 14:18 | 34.01193 | -7.74602 | 37983 ft | 497 kts | 28° |
| 2026-05-06 14:18 | 34.07015 | -7.70126 | 37979 ft | 497 kts | 28° |
| 2026-05-06 14:19 | 34.12841 | -7.65638 | 37982 ft | 496 kts | 28° |
| 2026-05-06 14:19 | 34.18655 | -7.61153 | 37982 ft | 496 kts | 28° |
| 2026-05-06 14:20 | 34.24472 | -7.56658 | 37976 ft | 496 kts | 28° |
| 2026-05-06 14:20 | 34.30284 | -7.52159 | 37980 ft | 496 kts | 28° |
| 2026-05-06 14:21 | 34.36089 | -7.47659 | 37979 ft | 495 kts | 28° |
| 2026-05-06 14:21 | 34.41887 | -7.43155 | 37976 ft | 495 kts | 28° |
| 2026-05-06 14:22 | 34.47688 | -7.38643 | 37975 ft | 495 kts | 28° |
| 2026-05-06 14:22 | 34.53478 | -7.34131 | 37973 ft | 495 kts | 28° |
| 2026-05-06 14:23 | 34.59261 | -7.29616 | 37974 ft | 495 kts | 28° |
| 2026-05-06 14:23 | 34.65051 | -7.25089 | 37978 ft | 494 kts | 28° |
| 2026-05-06 14:24 | 34.70833 | -7.20561 | 37976 ft | 494 kts | 28° |
| 2026-05-06 14:24 | 34.76608 | -7.16030 | 37977 ft | 494 kts | 28° |
| 2026-05-06 14:25 | 34.82386 | -7.11490 | 37975 ft | 494 kts | 28° |
| 2026-05-06 14:25 | 34.88158 | -7.06947 | 37970 ft | 494 kts | 28° |
| 2026-05-06 14:26 | 34.93924 | -7.02401 | 37974 ft | 493 kts | 28° |
| 2026-05-06 14:26 | 34.99686 | -6.97849 | 37970 ft | 493 kts | 28° |
| 2026-05-06 14:27 | 35.05441 | -6.93296 | 37969 ft | 493 kts | 28° |
| 2026-05-06 14:27 | 35.11194 | -6.88736 | 37956 ft | 493 kts | 29° |
| 2026-05-06 14:28 | 35.16947 | -6.84169 | 37970 ft | 493 kts | 29° |
| 2026-05-06 14:28 | 35.22689 | -6.79603 | 37967 ft | 492 kts | 29° |
| 2026-05-06 14:29 | 35.28391 | -6.75061 | 37967 ft | 492 kts | 29° |
| 2026-05-06 14:29 | 35.34127 | -6.70486 | 37965 ft | 492 kts | 29° |
| 2026-05-06 14:30 | 35.39900 | -6.65987 | 37974 ft | 492 kts | 28° |
| 2026-05-06 14:30 | 35.45699 | -6.61541 | 37969 ft | 491 kts | 28° |
| 2026-05-06 14:31 | 35.51494 | -6.57090 | 37961 ft | 492 kts | 28° |
| 2026-05-06 14:31 | 35.57284 | -6.52623 | 37963 ft | 491 kts | 28° |
| 2026-05-06 14:32 | 35.63065 | -6.48148 | 37960 ft | 491 kts | 28° |
| 2026-05-06 14:32 | 35.67909 | -6.44392 | 37957 ft | 491 kts | 28° |
| 2026-05-06 14:33 | 35.73683 | -6.39908 | 37961 ft | 491 kts | 28° |
| 2026-05-06 14:33 | 35.79414 | -6.35450 | 37960 ft | 491 kts | 28° |
| 2026-05-06 14:34 | 35.85161 | -6.30904 | 37951 ft | 491 kts | 30° |
| 2026-05-06 14:34 | 35.90793 | -6.26124 | 37951 ft | 492 kts | 31° |
| 2026-05-06 14:35 | 35.96393 | -6.21277 | 37955 ft | 492 kts | 31° |
| 2026-05-06 14:35 | 36.02002 | -6.16436 | 37954 ft | 492 kts | 31° |
| 2026-05-06 14:36 | 36.07612 | -6.11613 | 37949 ft | 491 kts | 31° |
| 2026-05-06 14:36 | 36.13223 | -6.06789 | 37948 ft | 491 kts | 31° |
| 2026-05-06 14:37 | 36.18837 | -6.01955 | 37947 ft | 491 kts | 31° |
| 2026-05-06 14:37 | 36.24305 | -5.96870 | 37943 ft | 494 kts | 40° |
| 2026-05-06 14:38 | 36.29268 | -5.90963 | 37940 ft | 495 kts | 42° |
| 2026-05-06 14:38 | 36.34124 | -5.84882 | 37933 ft | 496 kts | 43° |
| 2026-05-06 14:39 | 36.38953 | -5.78773 | 37926 ft | 496 kts | 43° |
| 2026-05-06 14:39 | 36.43799 | -5.72655 | 37922 ft | 496 kts | 43° |
| 2026-05-06 14:40 | 36.48642 | -5.66548 | 37921 ft | 496 kts | 43° |
| 2026-05-06 14:40 | 36.53481 | -5.60442 | 37913 ft | 496 kts | 43° |
| 2026-05-06 14:41 | 36.58325 | -5.54319 | 37909 ft | 496 kts | 43° |
| 2026-05-06 14:41 | 36.63159 | -5.48195 | 37907 ft | 496 kts | 43° |
| 2026-05-06 14:42 | 36.67991 | -5.42060 | 37914 ft | 496 kts | 43° |
| 2026-05-06 14:42 | 36.72819 | -5.35918 | 37905 ft | 496 kts | 43° |
| 2026-05-06 14:43 | 36.77643 | -5.29772 | 37914 ft | 496 kts | 43° |
| 2026-05-06 14:43 | 36.82426 | -5.23664 | 37913 ft | 495 kts | 43° |
| 2026-05-06 14:44 | 36.87239 | -5.17508 | 37917 ft | 495 kts | 43° |
| 2026-05-06 14:45 | 36.94450 | -5.08262 | 37918 ft | 495 kts | 43° |
| 2026-05-06 14:45 | 36.99253 | -5.02088 | 37911 ft | 495 kts | 43° |
| 2026-05-06 14:46 | 37.04137 | -4.96038 | 37906 ft | 492 kts | 35° |
| 2026-05-06 14:46 | 37.06933 | -4.93620 | 37905 ft | 485 kts | 24° |
| 2026-05-06 14:46 | 37.09934 | -4.91733 | 37909 ft | 482 kts | 20° |
| 2026-05-06 14:47 | 37.16081 | -4.88368 | 37906 ft | 482 kts | 17° |
| 2026-05-06 14:47 | 37.22281 | -4.85192 | 37908 ft | 481 kts | 17° |
| 2026-05-06 14:48 | 37.28478 | -4.82008 | 37904 ft | 481 kts | 17° |
| 2026-05-06 14:48 | 37.34668 | -4.78785 | 37907 ft | 481 kts | 18° |
| 2026-05-06 14:49 | 37.40852 | -4.75541 | 37904 ft | 481 kts | 18° |
| 2026-05-06 14:49 | 37.46771 | -4.72427 | 37901 ft | 481 kts | 18° |
| 2026-05-06 14:50 | 37.51034 | -4.70181 | 37899 ft | 481 kts | 18° |
| 2026-05-06 14:51 | 37.52297 | -4.69516 | 37897 ft | 481 kts | 18° |
| 2026-05-06 14:51 | 37.58468 | -4.66261 | 37894 ft | 481 kts | 18° |
| 2026-05-06 14:52 | 37.64631 | -4.63005 | 37895 ft | 480 kts | 18° |
| 2026-05-06 14:52 | 37.70796 | -4.59742 | 37893 ft | 480 kts | 18° |
| 2026-05-06 14:53 | 37.76949 | -4.56479 | 37891 ft | 480 kts | 18° |
| 2026-05-06 14:53 | 37.83111 | -4.53206 | 37889 ft | 480 kts | 18° |
| 2026-05-06 14:54 | 37.89262 | -4.49932 | 37890 ft | 479 kts | 18° |
| 2026-05-06 14:54 | 37.95401 | -4.46658 | 37886 ft | 479 kts | 18° |
| 2026-05-06 14:55 | 38.01548 | -4.43374 | 37893 ft | 479 kts | 18° |
| 2026-05-06 14:55 | 38.07692 | -4.40086 | 37888 ft | 479 kts | 18° |
| 2026-05-06 14:56 | 38.13833 | -4.36794 | 37892 ft | 479 kts | 18° |
| 2026-05-06 14:56 | 38.19927 | -4.33519 | 37888 ft | 478 kts | 18° |
| 2026-05-06 14:57 | 38.26059 | -4.30219 | 37886 ft | 478 kts | 18° |
| 2026-05-06 14:57 | 38.32194 | -4.26911 | 37885 ft | 478 kts | 18° |
| 2026-05-06 14:58 | 38.38319 | -4.23603 | 37891 ft | 478 kts | 18° |
| 2026-05-06 14:58 | 38.44445 | -4.20288 | 37888 ft | 477 kts | 18° |
| 2026-05-06 14:59 | 38.50557 | -4.16974 | 37896 ft | 477 kts | 18° |
| 2026-05-06 14:59 | 38.56634 | -4.13673 | 37887 ft | 477 kts | 18° |
| 2026-05-06 15:00 | 38.62741 | -4.10349 | 37881 ft | 477 kts | 18° |
| 2026-05-06 15:00 | 38.68850 | -4.07019 | 37899 ft | 477 kts | 18° |
| 2026-05-06 15:01 | 38.74953 | -4.03686 | 37917 ft | 477 kts | 18° |
| 2026-05-06 15:01 | 38.81054 | -4.00348 | 37894 ft | 476 kts | 18° |
| 2026-05-06 15:02 | 38.87141 | -3.97013 | 37905 ft | 476 kts | 18° |
| 2026-05-06 15:02 | 38.93223 | -3.93674 | 37901 ft | 476 kts | 18° |
| 2026-05-06 15:03 | 38.99310 | -3.90327 | 37901 ft | 475 kts | 18° |
| 2026-05-06 15:03 | 39.05386 | -3.86978 | 37901 ft | 475 kts | 18° |
| 2026-05-06 15:04 | 39.11458 | -3.83625 | 37903 ft | 475 kts | 18° |
| 2026-05-06 15:04 | 39.17528 | -3.80267 | 37901 ft | 475 kts | 19° |
| 2026-05-06 15:05 | 39.23589 | -3.76907 | 37907 ft | 474 kts | 19° |
| 2026-05-06 15:05 | 39.29643 | -3.73546 | 37909 ft | 473 kts | 19° |
| 2026-05-06 15:06 | 39.35694 | -3.70179 | 37907 ft | 473 kts | 19° |
| 2026-05-06 15:06 | 39.41735 | -3.66812 | 37910 ft | 473 kts | 19° |
| 2026-05-06 15:07 | 39.47769 | -3.63442 | 37908 ft | 472 kts | 19° |
| 2026-05-06 15:07 | 39.53801 | -3.60067 | 37913 ft | 472 kts | 19° |
| 2026-05-06 15:08 | 39.59827 | -3.56688 | 37916 ft | 472 kts | 19° |
| 2026-05-06 15:08 | 39.65853 | -3.53299 | 37919 ft | 472 kts | 19° |
| 2026-05-06 15:09 | 39.71833 | -3.49929 | 37922 ft | 471 kts | 19° |
| 2026-05-06 15:09 | 39.77800 | -3.46387 | 37921 ft | 474 kts | 26° |
| 2026-05-06 15:10 | 39.83421 | -3.41870 | 37924 ft | 476 kts | 29° |
| 2026-05-06 15:10 | 39.88962 | -3.37134 | 37927 ft | 476 kts | 30° |
| 2026-05-06 15:11 | 39.94476 | -3.32353 | 37929 ft | 476 kts | 30° |
| 2026-05-06 15:11 | 39.99995 | -3.27574 | 37927 ft | 476 kts | 30° |
| 2026-05-06 15:12 | 40.05503 | -3.22812 | 37932 ft | 475 kts | 30° |
| 2026-05-06 15:12 | 40.11019 | -3.18041 | 37935 ft | 475 kts | 30° |
| 2026-05-06 15:13 | 40.16527 | -3.13267 | 37936 ft | 475 kts | 30° |
| 2026-05-06 15:13 | 40.22031 | -3.08486 | 37934 ft | 475 kts | 30° |
| 2026-05-06 15:14 | 40.27530 | -3.03699 | 37938 ft | 475 kts | 30° |
| 2026-05-06 15:14 | 40.33029 | -2.98902 | 37931 ft | 474 kts | 30° |
| 2026-05-06 15:15 | 40.38480 | -2.94136 | 37940 ft | 474 kts | 30° |
| 2026-05-06 15:15 | 40.43969 | -2.89326 | 37942 ft | 474 kts | 30° |
| 2026-05-06 15:16 | 40.49454 | -2.84513 | 37941 ft | 474 kts | 30° |
| 2026-05-06 15:16 | 40.54935 | -2.79691 | 37943 ft | 474 kts | 30° |
| 2026-05-06 15:17 | 40.60413 | -2.74862 | 37937 ft | 474 kts | 30° |
| 2026-05-06 15:17 | 40.65889 | -2.70027 | 37939 ft | 474 kts | 31° |
| 2026-05-06 15:18 | 40.71366 | -2.65181 | 37939 ft | 474 kts | 31° |
| 2026-05-06 15:18 | 40.76834 | -2.60333 | 37940 ft | 474 kts | 31° |
| 2026-05-06 15:19 | 40.82303 | -2.55474 | 37943 ft | 474 kts | 31° |
| 2026-05-06 15:19 | 40.87767 | -2.50611 | 37946 ft | 474 kts | 31° |
| 2026-05-06 15:20 | 40.92308 | -2.46560 | 37943 ft | 474 kts | 31° |
| 2026-05-06 15:20 | 40.97768 | -2.41681 | 37946 ft | 473 kts | 31° |
| 2026-05-06 15:21 | 41.03199 | -2.36745 | 37947 ft | 474 kts | 33° |
| 2026-05-06 15:21 | 41.08403 | -2.31364 | 37945 ft | 475 kts | 36° |
| 2026-05-06 15:22 | 41.13522 | -2.25815 | 37947 ft | 475 kts | 36° |
| 2026-05-06 15:22 | 41.18649 | -2.20280 | 37950 ft | 475 kts | 36° |
| 2026-05-06 15:23 | 41.23789 | -2.14778 | 37953 ft | 474 kts | 36° |
| 2026-05-06 15:23 | 41.28934 | -2.09282 | 37945 ft | 474 kts | 36° |
| 2026-05-06 15:24 | 41.34066 | -2.03792 | 37947 ft | 474 kts | 36° |
| 2026-05-06 15:24 | 41.39207 | -1.98279 | 37949 ft | 474 kts | 36° |
| 2026-05-06 15:25 | 41.44340 | -1.92761 | 37953 ft | 474 kts | 36° |
| 2026-05-06 15:25 | 41.49461 | -1.87243 | 37959 ft | 473 kts | 36° |
| 2026-05-06 15:26 | 41.54580 | -1.81717 | 37949 ft | 473 kts | 36° |
| 2026-05-06 15:26 | 41.59689 | -1.76189 | 37956 ft | 473 kts | 36° |
| 2026-05-06 15:27 | 41.64799 | -1.70650 | 37956 ft | 473 kts | 36° |
| 2026-05-06 15:27 | 41.69898 | -1.65109 | 37965 ft | 472 kts | 36° |
| 2026-05-06 15:28 | 41.74984 | -1.59572 | 37965 ft | 472 kts | 36° |
| 2026-05-06 15:28 | 41.80080 | -1.54013 | 37966 ft | 471 kts | 36° |
| 2026-05-06 15:29 | 41.85159 | -1.48460 | 37968 ft | 471 kts | 36° |
| 2026-05-06 15:29 | 41.90201 | -1.42935 | 37966 ft | 471 kts | 36° |
| 2026-05-06 15:30 | 41.95270 | -1.37370 | 37971 ft | 471 kts | 37° |
| 2026-05-06 15:30 | 42.00333 | -1.31799 | 37972 ft | 470 kts | 37° |
| 2026-05-06 15:31 | 42.05400 | -1.26212 | 37968 ft | 471 kts | 37° |
| 2026-05-06 15:31 | 42.10460 | -1.20621 | 37966 ft | 471 kts | 37° |
| 2026-05-06 15:32 | 42.18044 | -1.12219 | 37968 ft | 470 kts | 37° |
| 2026-05-06 15:32 | 42.23093 | -1.06612 | 37965 ft | 470 kts | 37° |
| 2026-05-06 15:33 | 42.28141 | -1.00993 | 37964 ft | 470 kts | 37° |
| 2026-05-06 15:33 | 42.33184 | -0.95367 | 37958 ft | 470 kts | 37° |
| 2026-05-06 15:34 | 42.38224 | -0.89734 | 37963 ft | 470 kts | 37° |
| 2026-05-06 15:34 | 42.43083 | -0.83823 | 37951 ft | 472 kts | 47° |
| 2026-05-06 15:35 | 42.47264 | -0.76944 | 37959 ft | 473 kts | 50° |
| 2026-05-06 15:35 | 42.51292 | -0.69871 | 37955 ft | 474 kts | 51° |
| 2026-05-06 15:36 | 42.55287 | -0.62758 | 37954 ft | 474 kts | 51° |
| 2026-05-06 15:36 | 42.59287 | -0.55649 | 37957 ft | 474 kts | 51° |
| 2026-05-06 15:37 | 42.63294 | -0.48542 | 37960 ft | 474 kts | 51° |
| 2026-05-06 15:37 | 42.67277 | -0.41471 | 37971 ft | 474 kts | 51° |
| 2026-05-06 15:38 | 42.71277 | -0.34351 | 37975 ft | 474 kts | 51° |
| 2026-05-06 15:38 | 42.75275 | -0.27216 | 37963 ft | 474 kts | 51° |
| 2026-05-06 15:39 | 42.79266 | -0.20081 | 37968 ft | 474 kts | 50° |
| 2026-05-06 15:39 | 42.83381 | -0.13067 | 37996 ft | 474 kts | 49° |
| 2026-05-06 15:40 | 42.87577 | -0.06144 | 37973 ft | 473 kts | 48° |
| 2026-05-06 15:40 | 42.91767 | 0.00780 | 37987 ft | 473 kts | 49° |
| 2026-05-06 15:41 | 42.95938 | 0.07730 | 37987 ft | 473 kts | 49° |
| 2026-05-06 15:41 | 43.00104 | 0.14705 | 37992 ft | 474 kts | 49° |
| 2026-05-06 15:42 | 43.04260 | 0.21686 | 37982 ft | 474 kts | 49° |
| 2026-05-06 15:42 | 43.08414 | 0.28678 | 37987 ft | 474 kts | 49° |
| 2026-05-06 15:43 | 43.12564 | 0.35678 | 37985 ft | 474 kts | 49° |
| 2026-05-06 15:43 | 43.16679 | 0.42636 | 37979 ft | 474 kts | 49° |
| 2026-05-06 15:44 | 43.20827 | 0.49666 | 37972 ft | 474 kts | 49° |
| 2026-05-06 15:44 | 43.24966 | 0.56698 | 37966 ft | 474 kts | 49° |
| 2026-05-06 15:45 | 43.29104 | 0.63745 | 37962 ft | 474 kts | 50° |
| 2026-05-06 15:45 | 43.33235 | 0.70797 | 37964 ft | 474 kts | 50° |
| 2026-05-06 15:46 | 43.37363 | 0.77860 | 37962 ft | 474 kts | 50° |
| 2026-05-06 15:46 | 43.41484 | 0.84930 | 37953 ft | 474 kts | 50° |
| 2026-05-06 15:47 | 43.45599 | 0.92005 | 37945 ft | 474 kts | 50° |
| 2026-05-06 15:47 | 43.49710 | 0.99092 | 37952 ft | 474 kts | 50° |
| 2026-05-06 15:48 | 43.53814 | 1.06183 | 37937 ft | 474 kts | 50° |
| 2026-05-06 15:48 | 43.57916 | 1.13287 | 37942 ft | 474 kts | 50° |
| 2026-05-06 15:49 | 43.62017 | 1.20409 | 37942 ft | 474 kts | 50° |
| 2026-05-06 15:49 | 43.66115 | 1.27540 | 37936 ft | 474 kts | 50° |
| 2026-05-06 15:50 | 43.70155 | 1.34737 | 37935 ft | 475 kts | 52° |
| 2026-05-06 15:50 | 43.74076 | 1.42080 | 37949 ft | 475 kts | 53° |
| 2026-05-06 15:51 | 43.77951 | 1.49413 | 37938 ft | 475 kts | 53° |
| 2026-05-06 15:51 | 43.81857 | 1.56788 | 37936 ft | 475 kts | 52° |
| 2026-05-06 15:52 | 43.85767 | 1.64164 | 37931 ft | 475 kts | 52° |
| 2026-05-06 15:52 | 43.89677 | 1.71551 | 37935 ft | 476 kts | 53° |
| 2026-05-06 15:53 | 43.93588 | 1.78960 | 37930 ft | 476 kts | 53° |
| 2026-05-06 15:53 | 43.97447 | 1.86409 | 37931 ft | 476 kts | 54° |
| 2026-05-06 15:54 | 44.01213 | 1.93965 | 37931 ft | 476 kts | 54° |
| 2026-05-06 15:54 | 44.04957 | 2.01538 | 37936 ft | 476 kts | 54° |
| 2026-05-06 15:55 | 44.08707 | 2.09119 | 37936 ft | 475 kts | 54° |
| 2026-05-06 15:55 | 44.12457 | 2.16699 | 37936 ft | 476 kts | 54° |
| 2026-05-06 15:56 | 44.16203 | 2.24283 | 37936 ft | 475 kts | 54° |
| 2026-05-06 15:56 | 44.19948 | 2.31884 | 37938 ft | 475 kts | 54° |
| 2026-05-06 15:57 | 44.23680 | 2.39483 | 37937 ft | 475 kts | 55° |
| 2026-05-06 15:57 | 44.27410 | 2.47095 | 37936 ft | 475 kts | 55° |
| 2026-05-06 15:58 | 44.31113 | 2.54675 | 37938 ft | 476 kts | 55° |
| 2026-05-06 15:58 | 44.34834 | 2.62309 | 37939 ft | 476 kts | 55° |
| 2026-05-06 15:59 | 44.38553 | 2.69960 | 37935 ft | 476 kts | 55° |
| 2026-05-06 15:59 | 44.42263 | 2.77612 | 37933 ft | 475 kts | 55° |
| 2026-05-06 16:00 | 44.45971 | 2.85281 | 37935 ft | 476 kts | 55° |
| 2026-05-06 16:00 | 44.49671 | 2.92955 | 37929 ft | 476 kts | 56° |
| 2026-05-06 16:01 | 44.53365 | 3.00636 | 37923 ft | 476 kts | 56° |
| 2026-05-06 16:01 | 44.57058 | 3.08336 | 37925 ft | 475 kts | 56° |
| 2026-05-06 16:02 | 44.60731 | 3.16037 | 37917 ft | 475 kts | 57° |
| 2026-05-06 16:02 | 44.64110 | 3.24019 | 37913 ft | 476 kts | 60° |
| 2026-05-06 16:03 | 44.67309 | 3.32160 | 37912 ft | 476 kts | 61° |
| 2026-05-06 16:03 | 44.70510 | 3.40313 | 37910 ft | 477 kts | 61° |
| 2026-05-06 16:04 | 44.73739 | 3.48458 | 37903 ft | 477 kts | 61° |
| 2026-05-06 16:04 | 44.76979 | 3.56608 | 37903 ft | 478 kts | 61° |
| 2026-05-06 16:05 | 44.80221 | 3.64777 | 37903 ft | 478 kts | 61° |
| 2026-05-06 16:05 | 44.83455 | 3.72951 | 37907 ft | 478 kts | 61° |
| 2026-05-06 16:06 | 44.86685 | 3.81147 | 37903 ft | 478 kts | 61° |
| 2026-05-06 16:06 | 44.89910 | 3.89352 | 37904 ft | 478 kts | 61° |
| 2026-05-06 16:07 | 44.93129 | 3.97565 | 37906 ft | 478 kts | 61° |
| 2026-05-06 16:07 | 44.96343 | 4.05792 | 37903 ft | 478 kts | 62° |
| 2026-05-06 16:08 | 44.99547 | 4.14016 | 37906 ft | 478 kts | 62° |
| 2026-05-06 16:08 | 45.02719 | 4.22181 | 37908 ft | 476 kts | 62° |
| 2026-05-06 16:09 | 45.05898 | 4.30391 | 37906 ft | 476 kts | 62° |
| 2026-05-06 16:09 | 45.09069 | 4.38603 | 37898 ft | 476 kts | 62° |
| 2026-05-06 16:10 | 45.11720 | 4.45488 | 37903 ft | 475 kts | 62° |
| 2026-05-06 16:10 | 45.14878 | 4.53712 | 37899 ft | 475 kts | 62° |
| 2026-05-06 16:11 | 45.18028 | 4.61939 | 37901 ft | 475 kts | 62° |
| 2026-05-06 16:11 | 45.21170 | 4.70169 | 37900 ft | 475 kts | 62° |
| 2026-05-06 16:12 | 45.24307 | 4.78412 | 37905 ft | 475 kts | 63° |
| 2026-05-06 16:12 | 45.27437 | 4.86663 | 37905 ft | 475 kts | 63° |
| 2026-05-06 16:13 | 45.30565 | 4.94931 | 37909 ft | 475 kts | 63° |
| 2026-05-06 16:13 | 45.33666 | 5.03154 | 37911 ft | 475 kts | 63° |
| 2026-05-06 16:14 | 45.36785 | 5.11447 | 37909 ft | 476 kts | 63° |
| 2026-05-06 16:14 | 45.39897 | 5.19747 | 37914 ft | 476 kts | 63° |
| 2026-05-06 16:15 | 45.43006 | 5.28067 | 37910 ft | 476 kts | 63° |
| 2026-05-06 16:15 | 45.46112 | 5.36402 | 37912 ft | 476 kts | 63° |
| 2026-05-06 16:16 | 45.49658 | 5.44344 | 37912 ft | 477 kts | 48° |
| 2026-05-06 16:16 | 45.54370 | 5.50994 | 37915 ft | 477 kts | 42° |
| 2026-05-06 16:17 | 45.59316 | 5.57326 | 37912 ft | 478 kts | 41° |
| 2026-05-06 16:17 | 45.64295 | 5.63607 | 37910 ft | 478 kts | 41° |
| 2026-05-06 16:18 | 45.69260 | 5.69928 | 37911 ft | 478 kts | 41° |
| 2026-05-06 16:18 | 45.74213 | 5.76284 | 37909 ft | 478 kts | 41° |
| 2026-05-06 16:19 | 45.79165 | 5.82650 | 37912 ft | 478 kts | 41° |
| 2026-05-06 16:19 | 45.84119 | 5.89029 | 37911 ft | 478 kts | 41° |
| 2026-05-06 16:20 | 45.89058 | 5.95405 | 37912 ft | 478 kts | 41° |
| 2026-05-06 16:20 | 45.94002 | 6.01802 | 37912 ft | 478 kts | 41° |
| 2026-05-06 16:21 | 45.98942 | 6.08210 | 37913 ft | 478 kts | 41° |
| 2026-05-06 16:21 | 46.03875 | 6.14627 | 37913 ft | 478 kts | 42° |
| 2026-05-06 16:22 | 46.08778 | 6.21029 | 37917 ft | 478 kts | 43° |
| 2026-05-06 16:22 | 46.13567 | 6.27662 | 37912 ft | 478 kts | 45° |
| 2026-05-06 16:23 | 46.18275 | 6.34416 | 37915 ft | 477 kts | 45° |
| 2026-05-06 16:23 | 46.22982 | 6.41179 | 37915 ft | 477 kts | 45° |
| 2026-05-06 16:24 | 46.27699 | 6.47935 | 37924 ft | 477 kts | 45° |
| 2026-05-06 16:24 | 46.32412 | 6.54683 | 37924 ft | 477 kts | 45° |
| 2026-05-06 16:25 | 46.37123 | 6.61444 | 37916 ft | 477 kts | 45° |
| 2026-05-06 16:25 | 46.41831 | 6.68220 | 37928 ft | 477 kts | 45° |
| 2026-05-06 16:26 | 46.46535 | 6.75008 | 37922 ft | 477 kts | 45° |
| 2026-05-06 16:26 | 46.51234 | 6.81808 | 37920 ft | 477 kts | 45° |
| 2026-05-06 16:27 | 46.55858 | 6.88728 | 37906 ft | 477 kts | 50° |
| 2026-05-06 16:27 | 46.60108 | 6.96123 | 37907 ft | 477 kts | 51° |
| 2026-05-06 16:28 | 46.64280 | 7.03628 | 37916 ft | 477 kts | 52° |
| 2026-05-06 16:28 | 46.68403 | 7.11106 | 37917 ft | 477 kts | 52° |
| 2026-05-06 16:29 | 46.72552 | 7.18640 | 37907 ft | 477 kts | 52° |
| 2026-05-06 16:29 | 46.76702 | 7.26180 | 37898 ft | 477 kts | 52° |
| 2026-05-06 16:30 | 46.80174 | 7.32501 | 37890 ft | 477 kts | 52° |
| 2026-05-06 16:30 | 46.84990 | 7.41290 | 37888 ft | 476 kts | 52° |
| 2026-05-06 16:31 | 46.89119 | 7.48860 | 37885 ft | 476 kts | 52° |
| 2026-05-06 16:31 | 46.93238 | 7.56441 | 37884 ft | 476 kts | 52° |
| 2026-05-06 16:32 | 46.97349 | 7.64026 | 37885 ft | 476 kts | 52° |
| 2026-05-06 16:32 | 47.01451 | 7.71615 | 37895 ft | 475 kts | 52° |
| 2026-05-06 16:33 | 47.05550 | 7.79218 | 37895 ft | 475 kts | 53° |
| 2026-05-06 16:34 | 47.11684 | 7.90637 | 37903 ft | 475 kts | 53° |
| 2026-05-06 16:34 | 47.15442 | 7.98575 | 37905 ft | 474 kts | 58° |
| 2026-05-06 16:35 | 47.18958 | 8.06701 | 37906 ft | 474 kts | 59° |
| 2026-05-06 16:35 | 47.22445 | 8.14925 | 37909 ft | 474 kts | 59° |
| 2026-05-06 16:36 | 47.25924 | 8.23154 | 37903 ft | 474 kts | 59° |
| 2026-05-06 16:36 | 47.29436 | 8.30906 | 37905 ft | 475 kts | 50° |
| 2026-05-06 16:36 | 47.31716 | 8.34321 | 37885 ft | 476 kts | 39° |
| 2026-05-06 16:37 | 47.34388 | 8.37327 | 37887 ft | 475 kts | 35° |
| 2026-05-06 16:37 | 47.39831 | 8.42783 | 37882 ft | 476 kts | 32° |
| 2026-05-06 16:38 | 47.45403 | 8.48096 | 37878 ft | 476 kts | 32° |
| 2026-05-06 16:38 | 47.50957 | 8.53415 | 37884 ft | 476 kts | 33° |
| 2026-05-06 16:39 | 47.56488 | 8.58775 | 37888 ft | 475 kts | 33° |
| 2026-05-06 16:39 | 47.62010 | 8.64164 | 37879 ft | 475 kts | 33° |
| 2026-05-06 16:40 | 47.67498 | 8.69539 | 37877 ft | 474 kts | 33° |
| 2026-05-06 16:40 | 47.73009 | 8.74947 | 37877 ft | 473 kts | 33° |
| 2026-05-06 16:41 | 47.78497 | 8.80345 | 37881 ft | 472 kts | 33° |
| 2026-05-06 16:41 | 47.83966 | 8.85739 | 37867 ft | 472 kts | 33° |
| 2026-05-06 16:42 | 47.89437 | 8.91147 | 37868 ft | 471 kts | 33° |
| 2026-05-06 16:42 | 47.94891 | 8.96553 | 37876 ft | 471 kts | 33° |
| 2026-05-06 16:43 | 48.00334 | 9.01962 | 37860 ft | 471 kts | 33° |
| 2026-05-06 16:43 | 48.05793 | 9.07401 | 37870 ft | 470 kts | 34° |
| 2026-05-06 16:44 | 48.11229 | 9.12831 | 37849 ft | 470 kts | 34° |
| 2026-05-06 16:44 | 48.16884 | 9.17678 | 37854 ft | 468 kts | 20° |
| 2026-05-06 16:45 | 48.23147 | 9.20256 | 37852 ft | 467 kts | 11° |
| 2026-05-06 16:45 | 48.29519 | 9.22196 | 37853 ft | 468 kts | 9° |
| 2026-05-06 16:46 | 48.35909 | 9.24016 | 37844 ft | 468 kts | 9° |
| 2026-05-06 16:46 | 48.42305 | 9.25868 | 37839 ft | 468 kts | 10° |
| 2026-05-06 16:47 | 48.48685 | 9.27754 | 37836 ft | 468 kts | 10° |
| 2026-05-06 16:47 | 48.55062 | 9.29657 | 37834 ft | 468 kts | 10° |
| 2026-05-06 16:48 | 48.61464 | 9.31573 | 37825 ft | 468 kts | 10° |
| 2026-05-06 16:48 | 48.67857 | 9.33490 | 37833 ft | 468 kts | 10° |
| 2026-05-06 16:49 | 48.74249 | 9.35411 | 37825 ft | 469 kts | 10° |
| 2026-05-06 16:49 | 48.80650 | 9.37339 | 37831 ft | 468 kts | 10° |
| 2026-05-06 16:50 | 48.87039 | 9.39268 | 37828 ft | 468 kts | 10° |
| 2026-05-06 16:50 | 48.93429 | 9.41203 | 37824 ft | 468 kts | 10° |
| 2026-05-06 16:51 | 48.99774 | 9.43130 | 37812 ft | 468 kts | 10° |
| 2026-05-06 16:51 | 49.06156 | 9.45073 | 37811 ft | 468 kts | 10° |
| 2026-05-06 16:52 | 49.12539 | 9.47020 | 37804 ft | 468 kts | 10° |
| 2026-05-06 16:52 | 49.18917 | 9.48972 | 37810 ft | 467 kts | 10° |
| 2026-05-06 16:53 | 49.25297 | 9.50929 | 37807 ft | 467 kts | 10° |
| 2026-05-06 16:53 | 49.31657 | 9.52886 | 37806 ft | 466 kts | 10° |
| 2026-05-06 16:54 | 49.38013 | 9.54845 | 37803 ft | 466 kts | 10° |
| 2026-05-06 16:54 | 49.44363 | 9.56809 | 37807 ft | 466 kts | 10° |
| 2026-05-06 16:55 | 49.50725 | 9.58782 | 37803 ft | 465 kts | 10° |
| 2026-05-06 16:55 | 49.57067 | 9.60754 | 37805 ft | 465 kts | 11° |
| 2026-05-06 16:56 | 49.63399 | 9.62728 | 37801 ft | 464 kts | 11° |
| 2026-05-06 16:56 | 49.69729 | 9.64706 | 37798 ft | 464 kts | 11° |
| 2026-05-06 16:57 | 49.76062 | 9.66690 | 37790 ft | 464 kts | 11° |
| 2026-05-06 16:57 | 49.81323 | 9.68343 | 37793 ft | 464 kts | 11° |
| 2026-05-06 16:58 | 49.87645 | 9.70334 | 37793 ft | 464 kts | 11° |
| 2026-05-06 16:58 | 49.93985 | 9.72336 | 37789 ft | 464 kts | 11° |
| 2026-05-06 16:59 | 50.00315 | 9.74340 | 37783 ft | 464 kts | 11° |
| 2026-05-06 16:59 | 50.06642 | 9.76348 | 37788 ft | 464 kts | 11° |
| 2026-05-06 17:00 | 50.12975 | 9.78365 | 37776 ft | 465 kts | 11° |
| 2026-05-06 17:00 | 50.19310 | 9.80387 | 37781 ft | 465 kts | 11° |
| 2026-05-06 17:01 | 50.25584 | 9.82395 | 37792 ft | 465 kts | 11° |
| 2026-05-06 17:01 | 50.31994 | 9.84452 | 37777 ft | 465 kts | 11° |
| 2026-05-06 17:02 | 50.38225 | 9.86924 | 37782 ft | 466 kts | 22° |
| 2026-05-06 17:02 | 50.41125 | 9.89151 | 37773 ft | 465 kts | 33° |
| 2026-05-06 17:02 | 50.43711 | 9.92168 | 37777 ft | 463 kts | 44° |
| 2026-05-06 17:03 | 50.48311 | 9.99242 | 37776 ft | 464 kts | 48° |
| 2026-05-06 17:03 | 50.52725 | 10.06670 | 37773 ft | 465 kts | 49° |
| 2026-05-06 17:04 | 50.57116 | 10.14132 | 37775 ft | 466 kts | 49° |
| 2026-05-06 17:04 | 50.61541 | 10.21595 | 37770 ft | 467 kts | 48° |
| 2026-05-06 17:05 | 50.65676 | 10.29436 | 37770 ft | 464 kts | 60° |
| 2026-05-06 17:05 | 50.68933 | 10.38200 | 37768 ft | 464 kts | 63° |
| 2026-05-06 17:06 | 50.72016 | 10.47153 | 37760 ft | 464 kts | 64° |
| 2026-05-06 17:06 | 50.75061 | 10.56149 | 37746 ft | 465 kts | 64° |
| 2026-05-06 17:07 | 50.78115 | 10.65158 | 37763 ft | 465 kts | 64° |
| 2026-05-06 17:07 | 50.81170 | 10.74161 | 37756 ft | 465 kts | 64° |
| 2026-05-06 17:08 | 50.84228 | 10.83191 | 37757 ft | 465 kts | 64° |
| 2026-05-06 17:08 | 50.87277 | 10.92225 | 37751 ft | 466 kts | 64° |
| 2026-05-06 17:09 | 50.90323 | 11.01285 | 37754 ft | 466 kts | 64° |
| 2026-05-06 17:09 | 50.93362 | 11.10360 | 37735 ft | 467 kts | 64° |
| 2026-05-06 17:10 | 50.96408 | 11.19492 | 37760 ft | 470 kts | 64° |
| 2026-05-06 17:10 | 50.99464 | 11.28680 | 37754 ft | 471 kts | 64° |
| 2026-05-06 17:11 | 51.02509 | 11.37865 | 37420 ft | 471 kts | 64° |
| 2026-05-06 17:11 | 51.04039 | 11.42491 | 37142 ft | 472 kts | 64° |
| 2026-05-06 17:11 | 51.05561 | 11.47104 | 36878 ft | 472 kts | 64° |
| 2026-05-06 17:11 | 51.07085 | 11.51736 | 36603 ft | 473 kts | 64° |
| 2026-05-06 17:12 | 51.08606 | 11.56367 | 36232 ft | 472 kts | 64° |
| 2026-05-06 17:12 | 51.10130 | 11.61018 | 35497 ft | 475 kts | 64° |
| 2026-05-06 17:12 | 51.11660 | 11.65697 | 34709 ft | 479 kts | 64° |
| 2026-05-06 17:12 | 51.13184 | 11.70370 | 33903 ft | 484 kts | 64° |
| 2026-05-06 17:13 | 51.14762 | 11.75222 | 32947 ft | 489 kts | 64° |
| 2026-05-06 17:13 | 51.16329 | 11.80047 | 32039 ft | 493 kts | 64° |
| 2026-05-06 17:13 | 51.17908 | 11.84919 | 31119 ft | 496 kts | 64° |
| 2026-05-06 17:13 | 51.19467 | 11.89736 | 30508 ft | 493 kts | 64° |
| 2026-05-06 17:14 | 51.21232 | 11.94454 | 29820 ft | 493 kts | 52° |
| 2026-05-06 17:14 | 51.23436 | 11.98517 | 29105 ft | 489 kts | 50° |
| 2026-05-06 17:14 | 51.25739 | 12.02600 | 28434 ft | 484 kts | 48° |
| 2026-05-06 17:14 | 51.28001 | 12.06463 | 27788 ft | 480 kts | 47° |
| 2026-05-06 17:15 | 51.30289 | 12.10302 | 27117 ft | 477 kts | 47° |
| 2026-05-06 17:15 | 51.32578 | 12.14122 | 26437 ft | 474 kts | 47° |
| 2026-05-06 17:15 | 51.34847 | 12.17913 | 25805 ft | 470 kts | 47° |
| 2026-05-06 17:15 | 51.37062 | 12.21631 | 25484 ft | 459 kts | 47° |
| 2026-05-06 17:16 | 51.39262 | 12.25338 | 24886 ft | 455 kts | 47° |
| 2026-05-06 17:16 | 51.41436 | 12.29017 | 24278 ft | 453 kts | 47° |
| 2026-05-06 17:16 | 51.43589 | 12.32673 | 23691 ft | 449 kts | 47° |
| 2026-05-06 17:16 | 51.45724 | 12.36308 | 23069 ft | 446 kts | 47° |
| 2026-05-06 17:17 | 51.47839 | 12.39914 | 22432 ft | 442 kts | 47° |
| 2026-05-06 17:17 | 51.49928 | 12.43481 | 21708 ft | 434 kts | 47° |
| 2026-05-06 17:17 | 51.51982 | 12.46992 | 20734 ft | 428 kts | 47° |
| 2026-05-06 17:17 | 51.54002 | 12.50448 | 19881 ft | 420 kts | 47° |
| 2026-05-06 17:18 | 51.55976 | 12.53832 | 19210 ft | 409 kts | 47° |
| 2026-05-06 17:18 | 51.57893 | 12.57122 | 18597 ft | 397 kts | 47° |
| 2026-05-06 17:18 | 51.59752 | 12.60316 | 17992 ft | 387 kts | 47° |
| 2026-05-06 17:18 | 51.61566 | 12.63439 | 17357 ft | 377 kts | 47° |
| 2026-05-06 17:19 | 51.63330 | 12.66479 | 16799 ft | 367 kts | 47° |
| 2026-05-06 17:19 | 51.65052 | 12.69450 | 16240 ft | 359 kts | 47° |
| 2026-05-06 17:19 | 51.66737 | 12.72361 | 15712 ft | 353 kts | 47° |
| 2026-05-06 17:19 | 51.68410 | 12.75255 | 15164 ft | 354 kts | 47° |
| 2026-05-06 17:20 | 51.70096 | 12.78173 | 14629 ft | 356 kts | 47° |
| 2026-05-06 17:20 | 51.71789 | 12.81108 | 14080 ft | 358 kts | 47° |
| 2026-05-06 17:20 | 51.73463 | 12.84012 | 13535 ft | 358 kts | 47° |
| 2026-05-06 17:20 | 51.75155 | 12.86951 | 12941 ft | 357 kts | 47° |
| 2026-05-06 17:21 | 51.76866 | 12.89838 | 12347 ft | 355 kts | 41° |
| 2026-05-06 17:21 | 51.78877 | 12.92096 | 11857 ft | 349 kts | 29° |
| 2026-05-06 17:21 | 51.81006 | 12.93934 | 11391 ft | 344 kts | 26° |
| 2026-05-06 17:21 | 51.83143 | 12.95649 | 10874 ft | 341 kts | 25° |
| 2026-05-06 17:22 | 51.85272 | 12.97318 | 10357 ft | 339 kts | 25° |
| 2026-05-06 17:22 | 51.87364 | 12.98947 | 10129 ft | 327 kts | 24° |
| 2026-05-06 17:22 | 51.89373 | 13.00507 | 10003 ft | 313 kts | 24° |
| 2026-05-06 17:22 | 51.91297 | 13.02001 | 9754 ft | 304 kts | 24° |
| 2026-05-06 17:23 | 51.93213 | 13.03485 | 9190 ft | 305 kts | 24° |
| 2026-05-06 17:23 | 51.95119 | 13.04962 | 8751 ft | 303 kts | 24° |
| 2026-05-06 17:23 | 51.97006 | 13.06427 | 8338 ft | 299 kts | 24° |
| 2026-05-06 17:23 | 51.98875 | 13.07879 | 7912 ft | 296 kts | 24° |
| 2026-05-06 17:24 | 52.00635 | 13.09248 | 7513 ft | 294 kts | 24° |
| 2026-05-06 17:24 | 52.02471 | 13.10676 | 7104 ft | 291 kts | 24° |
| 2026-05-06 17:24 | 52.04291 | 13.12094 | 6685 ft | 289 kts | 25° |
| 2026-05-06 17:24 | 52.06096 | 13.13502 | 6275 ft | 287 kts | 24° |
| 2026-05-06 17:25 | 52.07884 | 13.14896 | 5848 ft | 284 kts | 25° |
| 2026-05-06 17:25 | 52.09661 | 13.16284 | 5432 ft | 281 kts | 25° |
| 2026-05-06 17:25 | 52.11414 | 13.17654 | 5039 ft | 278 kts | 25° |
| 2026-05-06 17:25 | 52.13145 | 13.19008 | 4637 ft | 275 kts | 25° |
| 2026-05-06 17:26 | 52.14892 | 13.20256 | 4175 ft | 273 kts | 17° |
| 2026-05-06 17:26 | 52.16736 | 13.20592 | 3965 ft | 261 kts | 353° |
| 2026-05-06 17:26 | 52.18447 | 13.19878 | 3849 ft | 248 kts | 340° |
| 2026-05-06 17:26 | 52.20022 | 13.18906 | 3723 ft | 237 kts | 338° |
| 2026-05-06 17:27 | 52.21518 | 13.17930 | 3597 ft | 226 kts | 338° |
| 2026-05-06 17:27 | 52.22940 | 13.17002 | 3498 ft | 216 kts | 339° |
| 2026-05-06 17:27 | 52.24345 | 13.16132 | 3274 ft | 214 kts | 344° |
| 2026-05-06 17:27 | 52.25721 | 13.16047 | 3049 ft | 213 kts | 19° |
| 2026-05-06 17:28 | 52.26927 | 13.17353 | 2999 ft | 195 kts | 43° |
| 2026-05-06 17:28 | 52.27783 | 13.18964 | 3003 ft | 185 kts | 57° |
| 2026-05-06 17:28 | 52.28350 | 13.20841 | 3007 ft | 183 kts | 68° |
| 2026-05-06 17:28 | 52.28547 | 13.21663 | 3002 ft | 184 kts | 68° |
| 2026-05-06 17:29 | 52.29006 | 13.23622 | 3007 ft | 184 kts | 68° |
| 2026-05-06 17:29 | 52.29467 | 13.25563 | 2963 ft | 183 kts | 68° |
| 2026-05-06 17:29 | 52.29936 | 13.27493 | 2735 ft | 182 kts | 68° |
| 2026-05-06 17:29 | 52.30383 | 13.29359 | 2505 ft | 171 kts | 68° |
| 2026-05-06 17:30 | 52.30812 | 13.31167 | 2239 ft | 172 kts | 68° |
| 2026-05-06 17:30 | 52.31244 | 13.32986 | 1992 ft | 173 kts | 68° |
| 2026-05-06 17:30 | 52.31681 | 13.34822 | 1756 ft | 172 kts | 68° |
| 2026-05-06 17:30 | 52.32094 | 13.36560 | 1521 ft | 155 kts | 67° |
| 2026-05-06 17:31 | 52.32463 | 13.38111 | 1332 ft | 140 kts | 67° |
| 2026-05-06 17:31 | 52.32798 | 13.39520 | 1145 ft | 131 kts | 67° |
| 2026-05-06 17:31 | 52.33125 | 13.40893 | 962 ft | 129 kts | 67° |
| 2026-05-06 17:31 | 52.33450 | 13.42262 | 800 ft | 129 kts | 67° |
| 2026-05-06 17:32 | 52.33776 | 13.43635 | 603 ft | 129 kts | 66° |
| 2026-05-06 17:32 | 52.34102 | 13.45006 | 430 ft | 129 kts | 68° |
| 2026-05-06 17:32 | 52.34424 | 13.46363 | 267 ft | 127 kts | 68° |
| 2026-05-06 17:32 | 52.34742 | 13.47708 | 172 ft | 125 kts | 68° |
| 2026-05-06 17:33 | 52.35021 | 13.48861 | 160 ft | 87 kts | 69° |
| 2026-05-06 17:33 | 52.35204 | 13.49641 | 160 ft | 62 kts | 67° |
| 2026-05-06 17:33 | 52.35349 | 13.50243 | 159 ft | 54 kts | 68° |
| 2026-05-06 17:33 | 52.35470 | 13.50536 | 160 ft | 24 kts | 44° |
| 2026-05-06 17:34 | 52.35585 | 13.50696 | 157 ft | 20 kts | 39° |
| 2026-05-06 17:34 | 52.35601 | 13.50717 | 156 ft | 0 kts | 38° |
| 2026-05-06 17:34 | 52.35603 | 13.50720 | 156 ft | 1 kts | 39° |
| 2026-05-06 17:34 | 52.35609 | 13.50728 | 156 ft | 0 kts | 39° |
| 2026-05-06 17:35 | 52.35619 | 13.50741 | 156 ft | 10 kts | 39° |
| 2026-05-06 17:35 | 52.35734 | 13.50843 | 154 ft | 19 kts | 355° |
| 2026-05-06 17:35 | 52.35855 | 13.50775 | 156 ft | 18 kts | 339° |
| 2026-05-06 17:36 | 52.35978 | 13.51080 | 158 ft | 26 kts | 68° |
| 2026-05-06 17:36 | 52.36048 | 13.51375 | 158 ft | 29 kts | 69° |
| 2026-05-06 17:36 | 52.36094 | 13.51512 | 159 ft | 4 kts | 6° |
| 2026-05-06 17:36 | 52.36159 | 13.51482 | 158 ft | 8 kts | 340° |
| 2026-05-06 17:37 | 52.36168 | 13.51476 | 158 ft | 0 kts | 340° |
| 2026-05-06 17:38 | 52.36166 | 13.51478 | 158 ft | 0 kts | 339° |